Search for airport 
image banner adimage banner adimage banner ad
image banner ad

CN02 - San Francisco Va Medical Center

Located in San Francisco, United States

ICAO - CN02, IATA -

Data provided by Airmate  

General information

Coordinates: N37°47'1" W122°30'24"
Elevation is 350 feet MSL.
 
View others Airports in California

Operational data

Special qualification required
Current time UTC:
Current local time:
Weather at : KSFO - San Francisco Intl ( 22 km )
METAR: KSFO 141256Z 29007KT 10SM FEW005 BKN013 OVC022 18/15 A3001 RMK AO2 SLP163 T01780150 $
TAF: KSFO 141201Z 1412/1518 VRB04KT P6SM OVC014 TEMPO 1412/1414 5SM BR BKN007 OVC012 FM141600 25006KT P6SM FEW012 SCT014 FM142000 27017G25KT P6SM FEW010 FM150300 27015KT P6SM FEW012 FM150900 28013KT P6SM SCT010 FM151600 29014KT P6SM FEW010
View NOTAMs / SUP AIP / TFR affecting this airport [VIEW]
Communications frequencies: [VIEW]

Runways:

Airport contact information

Address: San Francisco United States

Satellite view of CN02